sensor_id;sensor_type;location;lat;lon;timestamp;P1;durP1;ratioP1;P2;durP2;ratioP2
49392;SDS011;35268;42.642;23.308;2022-09-29T00:00:52;5.05;;;1.50;;
49392;SDS011;35268;42.642;23.308;2022-09-29T00:03:18;5.88;;;2.00;;
49392;SDS011;35268;42.642;23.308;2022-09-29T00:05:52;4.45;;;2.13;;
49392;SDS011;35268;42.642;23.308;2022-09-29T00:08:19;9.45;;;2.22;;
49392;SDS011;35268;42.642;23.308;2022-09-29T00:10:47;11.30;;;2.75;;
49392;SDS011;35268;42.642;23.308;2022-09-29T00:13:13;4.20;;;2.25;;
49392;SDS011;35268;42.642;23.308;2022-09-29T00:15:39;6.30;;;1.98;;
49392;SDS011;35268;42.642;23.308;2022-09-29T00:18:05;8.68;;;3.03;;
49392;SDS011;35268;42.642;23.308;2022-09-29T00:20:32;3.20;;;1.77;;
49392;SDS011;35268;42.642;23.308;2022-09-29T00:22:58;8.30;;;2.38;;
49392;SDS011;35268;42.642;23.308;2022-09-29T00:25:23;8.80;;;1.88;;
49392;SDS011;35268;42.642;23.308;2022-09-29T00:27:49;4.25;;;1.42;;
49392;SDS011;35268;42.642;23.308;2022-09-29T00:30:14;8.45;;;2.17;;
49392;SDS011;35268;42.642;23.308;2022-09-29T00:32:40;3.97;;;2.22;;
49392;SDS011;35268;42.642;23.308;2022-09-29T00:35:05;8.15;;;3.78;;
49392;SDS011;35268;42.642;23.308;2022-09-29T00:37:32;3.30;;;1.88;;
49392;SDS011;35268;42.642;23.308;2022-09-29T00:39:58;11.05;;;2.67;;
49392;SDS011;35268;42.642;23.308;2022-09-29T00:42:24;6.40;;;2.10;;
49392;SDS011;35268;42.642;23.308;2022-09-29T00:47:31;4.93;;;3.25;;
49392;SDS011;35268;42.642;23.308;2022-09-29T00:50:03;4.75;;;2.05;;
49392;SDS011;35268;42.642;23.308;2022-09-29T00:52:38;6.60;;;2.25;;
49392;SDS011;35268;42.642;23.308;2022-09-29T00:55:22;9.20;;;2.72;;
49392;SDS011;35268;42.642;23.308;2022-09-29T01:00:24;5.55;;;2.33;;
49392;SDS011;35268;42.642;23.308;2022-09-29T01:02:58;7.50;;;2.58;;
49392;SDS011;35268;42.642;23.308;2022-09-29T01:05:28;8.85;;;2.90;;
49392;SDS011;35268;42.642;23.308;2022-09-29T01:08:05;2.83;;;1.90;;
49392;SDS011;35268;42.642;23.308;2022-09-29T01:10:38;4.40;;;2.08;;
49392;SDS011;35268;42.642;23.308;2022-09-29T01:13:05;10.63;;;2.38;;
49392;SDS011;35268;42.642;23.308;2022-09-29T01:15:30;4.78;;;2.20;;
49392;SDS011;35268;42.642;23.308;2022-09-29T01:17:56;5.60;;;1.77;;
49392;SDS011;35268;42.642;23.308;2022-09-29T01:20:22;5.03;;;2.45;;
49392;SDS011;35268;42.642;23.308;2022-09-29T01:31:05;11.02;;;2.28;;
49392;SDS011;35268;42.642;23.308;2022-09-29T01:33:41;3.85;;;2.00;;
49392;SDS011;35268;42.642;23.308;2022-09-29T01:39:01;4.32;;;2.33;;
49392;SDS011;35268;42.642;23.308;2022-09-29T01:41:46;6.45;;;2.03;;
49392;SDS011;35268;42.642;23.308;2022-09-29T01:46:58;5.25;;;2.35;;
49392;SDS011;35268;42.642;23.308;2022-09-29T01:49:30;6.55;;;2.30;;
49392;SDS011;35268;42.642;23.308;2022-09-29T01:51:59;6.03;;;2.40;;
49392;SDS011;35268;42.642;23.308;2022-09-29T01:54:35;5.40;;;2.00;;
49392;SDS011;35268;42.642;23.308;2022-09-29T01:57:14;5.05;;;1.83;;
49392;SDS011;35268;42.642;23.308;2022-09-29T01:59:44;4.10;;;2.08;;
49392;SDS011;35268;42.642;23.308;2022-09-29T02:02:21;4.55;;;1.95;;
49392;SDS011;35268;42.642;23.308;2022-09-29T02:04:53;5.93;;;2.85;;
49392;SDS011;35268;42.642;23.308;2022-09-29T02:07:41;5.47;;;1.92;;
49392;SDS011;35268;42.642;23.308;2022-09-29T02:10:11;12.73;;;2.33;;
49392;SDS011;35268;42.642;23.308;2022-09-29T02:12:42;9.45;;;2.35;;
49392;SDS011;35268;42.642;23.308;2022-09-29T02:15:11;9.50;;;1.63;;
49392;SDS011;35268;42.642;23.308;2022-09-29T02:17:42;4.53;;;1.85;;
49392;SDS011;35268;42.642;23.308;2022-09-29T02:20:12;2.78;;;1.83;;
49392;SDS011;35268;42.642;23.308;2022-09-29T02:22:38;3.75;;;1.90;;
49392;SDS011;35268;42.642;23.308;2022-09-29T02:25:05;6.88;;;2.15;;
49392;SDS011;35268;42.642;23.308;2022-09-29T02:27:33;17.55;;;2.00;;
49392;SDS011;35268;42.642;23.308;2022-09-29T02:30:00;4.72;;;2.28;;
49392;SDS011;35268;42.642;23.308;2022-09-29T02:32:25;8.52;;;2.20;;
49392;SDS011;35268;42.642;23.308;2022-09-29T02:34:53;7.53;;;2.80;;
49392;SDS011;35268;42.642;23.308;2022-09-29T02:40:15;11.82;;;3.00;;
49392;SDS011;35268;42.642;23.308;2022-09-29T02:56:10;10.38;;;2.95;;
49392;SDS011;35268;42.642;23.308;2022-09-29T03:01:31;7.82;;;2.33;;
49392;SDS011;35268;42.642;23.308;2022-09-29T03:03:58;10.05;;;2.65;;
49392;SDS011;35268;42.642;23.308;2022-09-29T03:06:24;9.82;;;2.65;;
49392;SDS011;35268;42.642;23.308;2022-09-29T03:08:51;7.15;;;2.53;;
49392;SDS011;35268;42.642;23.308;2022-09-29T03:11:17;11.10;;;2.88;;
49392;SDS011;35268;42.642;23.308;2022-09-29T03:13:42;10.00;;;2.50;;
49392;SDS011;35268;42.642;23.308;2022-09-29T03:16:08;7.82;;;2.38;;
49392;SDS011;35268;42.642;23.308;2022-09-29T03:18:33;6.32;;;2.50;;
49392;SDS011;35268;42.642;23.308;2022-09-29T03:20:59;7.53;;;2.33;;
49392;SDS011;35268;42.642;23.308;2022-09-29T03:23:24;11.60;;;2.95;;
49392;SDS011;35268;42.642;23.308;2022-09-29T03:25:50;11.82;;;2.85;;
49392;SDS011;35268;42.642;23.308;2022-09-29T03:28:15;8.18;;;2.38;;
49392;SDS011;35268;42.642;23.308;2022-09-29T03:30:41;6.57;;;2.38;;
49392;SDS011;35268;42.642;23.308;2022-09-29T03:33:06;7.85;;;2.60;;
49392;SDS011;35268;42.642;23.308;2022-09-29T03:35:32;7.90;;;2.95;;
49392;SDS011;35268;42.642;23.308;2022-09-29T03:37:58;10.15;;;2.70;;
49392;SDS011;35268;42.642;23.308;2022-09-29T03:40:24;9.05;;;2.63;;
49392;SDS011;35268;42.642;23.308;2022-09-29T03:42:50;7.93;;;2.33;;
49392;SDS011;35268;42.642;23.308;2022-09-29T03:45:16;7.65;;;2.95;;
49392;SDS011;35268;42.642;23.308;2022-09-29T03:47:41;11.15;;;3.70;;
49392;SDS011;35268;42.642;23.308;2022-09-29T03:50:06;7.85;;;2.95;;
49392;SDS011;35268;42.642;23.308;2022-09-29T03:52:32;9.15;;;3.10;;
49392;SDS011;35268;42.642;23.308;2022-09-29T03:54:57;15.75;;;2.92;;
49392;SDS011;35268;42.642;23.308;2022-09-29T03:57:23;8.95;;;2.95;;
49392;SDS011;35268;42.642;23.308;2022-09-29T03:59:48;12.20;;;3.20;;
49392;SDS011;35268;42.642;23.308;2022-09-29T04:02:14;6.80;;;3.15;;
49392;SDS011;35268;42.642;23.308;2022-09-29T04:04:42;6.40;;;2.72;;
49392;SDS011;35268;42.642;23.308;2022-09-29T04:07:08;9.07;;;3.95;;
49392;SDS011;35268;42.642;23.308;2022-09-29T04:09:33;6.28;;;3.22;;
49392;SDS011;35268;42.642;23.308;2022-09-29T04:11:59;5.97;;;3.03;;
49392;SDS011;35268;42.642;23.308;2022-09-29T04:14:25;10.10;;;2.45;;
49392;SDS011;35268;42.642;23.308;2022-09-29T04:16:50;7.05;;;2.95;;
49392;SDS011;35268;42.642;23.308;2022-09-29T04:19:15;9.02;;;3.15;;
49392;SDS011;35268;42.642;23.308;2022-09-29T04:21:41;9.45;;;3.08;;
49392;SDS011;35268;42.642;23.308;2022-09-29T04:24:06;13.80;;;3.90;;
49392;SDS011;35268;42.642;23.308;2022-09-29T04:26:32;6.03;;;3.10;;
49392;SDS011;35268;42.642;23.308;2022-09-29T04:28:57;8.48;;;2.88;;
49392;SDS011;35268;42.642;23.308;2022-09-29T04:31:23;15.43;;;3.28;;
49392;SDS011;35268;42.642;23.308;2022-09-29T04:33:48;7.63;;;2.85;;
49392;SDS011;35268;42.642;23.308;2022-09-29T04:36:14;10.73;;;3.17;;
49392;SDS011;35268;42.642;23.308;2022-09-29T04:38:39;6.93;;;2.88;;
49392;SDS011;35268;42.642;23.308;2022-09-29T04:41:04;7.30;;;3.00;;
49392;SDS011;35268;42.642;23.308;2022-09-29T04:43:30;6.05;;;3.50;;
49392;SDS011;35268;42.642;23.308;2022-09-29T04:46:05;9.30;;;3.70;;
49392;SDS011;35268;42.642;23.308;2022-09-29T04:48:32;18.02;;;3.30;;
49392;SDS011;35268;42.642;23.308;2022-09-29T04:50:57;14.55;;;3.58;;
49392;SDS011;35268;42.642;23.308;2022-09-29T04:53:23;12.70;;;3.97;;
49392;SDS011;35268;42.642;23.308;2022-09-29T04:55:48;13.45;;;3.53;;
49392;SDS011;35268;42.642;23.308;2022-09-29T04:58:13;6.40;;;2.97;;
49392;SDS011;35268;42.642;23.308;2022-09-29T05:00:39;9.02;;;3.45;;
49392;SDS011;35268;42.642;23.308;2022-09-29T05:03:05;8.52;;;3.63;;
49392;SDS011;35268;42.642;23.308;2022-09-29T05:05:30;9.02;;;3.47;;
49392;SDS011;35268;42.642;23.308;2022-09-29T05:07:55;9.93;;;4.35;;
49392;SDS011;35268;42.642;23.308;2022-09-29T05:10:24;7.97;;;3.47;;
49392;SDS011;35268;42.642;23.308;2022-09-29T05:12:52;11.85;;;3.90;;
49392;SDS011;35268;42.642;23.308;2022-09-29T05:15:18;10.95;;;4.65;;
49392;SDS011;35268;42.642;23.308;2022-09-29T05:17:44;10.10;;;3.85;;
49392;SDS011;35268;42.642;23.308;2022-09-29T05:20:09;13.73;;;3.88;;
49392;SDS011;35268;42.642;23.308;2022-09-29T05:22:36;8.93;;;3.67;;
49392;SDS011;35268;42.642;23.308;2022-09-29T05:25:01;10.98;;;4.07;;
49392;SDS011;35268;42.642;23.308;2022-09-29T05:27:27;11.48;;;2.88;;
49392;SDS011;35268;42.642;23.308;2022-09-29T05:29:53;17.60;;;3.83;;
49392;SDS011;35268;42.642;23.308;2022-09-29T05:32:18;13.57;;;3.85;;
49392;SDS011;35268;42.642;23.308;2022-09-29T05:34:44;16.02;;;3.53;;
49392;SDS011;35268;42.642;23.308;2022-09-29T05:37:09;16.83;;;4.40;;
49392;SDS011;35268;42.642;23.308;2022-09-29T05:39:35;15.52;;;4.55;;
49392;SDS011;35268;42.642;23.308;2022-09-29T05:42:04;26.40;;;4.80;;
49392;SDS011;35268;42.642;23.308;2022-09-29T05:44:34;21.33;;;4.45;;
49392;SDS011;35268;42.642;23.308;2022-09-29T05:46:59;24.65;;;5.05;;
49392;SDS011;35268;42.642;23.308;2022-09-29T05:49:25;16.52;;;5.15;;
49392;SDS011;35268;42.642;23.308;2022-09-29T05:51:50;16.67;;;4.85;;
49392;SDS011;35268;42.642;23.308;2022-09-29T05:54:16;13.30;;;4.28;;
49392;SDS011;35268;42.642;23.308;2022-09-29T05:56:41;19.70;;;4.40;;
49392;SDS011;35268;42.642;23.308;2022-09-29T05:59:08;28.13;;;5.00;;
49392;SDS011;35268;42.642;23.308;2022-09-29T06:01:33;17.88;;;5.43;;
49392;SDS011;35268;42.642;23.308;2022-09-29T06:03:59;28.92;;;4.80;;
49392;SDS011;35268;42.642;23.308;2022-09-29T06:06:25;14.07;;;3.85;;
49392;SDS011;35268;42.642;23.308;2022-09-29T06:08:52;18.33;;;5.07;;
49392;SDS011;35268;42.642;23.308;2022-09-29T06:11:19;9.27;;;3.75;;
49392;SDS011;35268;42.642;23.308;2022-09-29T06:13:47;14.43;;;3.55;;
49392;SDS011;35268;42.642;23.308;2022-09-29T06:16:14;16.40;;;3.90;;
49392;SDS011;35268;42.642;23.308;2022-09-29T06:18:41;16.77;;;3.92;;
49392;SDS011;35268;42.642;23.308;2022-09-29T06:21:08;18.63;;;4.63;;
49392;SDS011;35268;42.642;23.308;2022-09-29T06:23:35;17.73;;;4.32;;
49392;SDS011;35268;42.642;23.308;2022-09-29T06:26:01;15.10;;;3.83;;
49392;SDS011;35268;42.642;23.308;2022-09-29T06:28:29;18.30;;;3.80;;
49392;SDS011;35268;42.642;23.308;2022-09-29T06:30:59;18.02;;;4.00;;
49392;SDS011;35268;42.642;23.308;2022-09-29T06:33:30;10.10;;;3.60;;
49392;SDS011;35268;42.642;23.308;2022-09-29T06:35:56;13.32;;;4.28;;
49392;SDS011;35268;42.642;23.308;2022-09-29T06:38:41;8.07;;;3.28;;
49392;SDS011;35268;42.642;23.308;2022-09-29T06:41:07;19.67;;;4.10;;
49392;SDS011;35268;42.642;23.308;2022-09-29T06:43:34;9.00;;;3.53;;
49392;SDS011;35268;42.642;23.308;2022-09-29T06:45:59;8.63;;;2.58;;
49392;SDS011;35268;42.642;23.308;2022-09-29T06:48:25;13.25;;;2.63;;
49392;SDS011;35268;42.642;23.308;2022-09-29T06:50:51;13.82;;;2.63;;
49392;SDS011;35268;42.642;23.308;2022-09-29T06:53:16;8.15;;;2.88;;
49392;SDS011;35268;42.642;23.308;2022-09-29T06:55:42;15.32;;;3.35;;
49392;SDS011;35268;42.642;23.308;2022-09-29T06:58:08;9.63;;;2.78;;
49392;SDS011;35268;42.642;23.308;2022-09-29T07:00:33;7.85;;;2.35;;
49392;SDS011;35268;42.642;23.308;2022-09-29T07:02:59;11.57;;;2.78;;
49392;SDS011;35268;42.642;23.308;2022-09-29T07:05:28;7.43;;;2.58;;
49392;SDS011;35268;42.642;23.308;2022-09-29T07:08:16;12.70;;;2.65;;
49392;SDS011;35268;42.642;23.308;2022-09-29T07:10:42;7.57;;;4.20;;
49392;SDS011;35268;42.642;23.308;2022-09-29T07:13:07;10.25;;;3.00;;
49392;SDS011;35268;42.642;23.308;2022-09-29T07:15:33;11.75;;;2.70;;
49392;SDS011;35268;42.642;23.308;2022-09-29T07:17:59;8.63;;;2.75;;
49392;SDS011;35268;42.642;23.308;2022-09-29T07:20:26;6.40;;;2.65;;
49392;SDS011;35268;42.642;23.308;2022-09-29T07:22:53;9.43;;;2.60;;
49392;SDS011;35268;42.642;23.308;2022-09-29T07:25:18;11.05;;;2.90;;
49392;SDS011;35268;42.642;23.308;2022-09-29T07:27:44;9.40;;;2.88;;
49392;SDS011;35268;42.642;23.308;2022-09-29T07:30:11;8.90;;;3.72;;
49392;SDS011;35268;42.642;23.308;2022-09-29T07:32:36;12.40;;;2.47;;
49392;SDS011;35268;42.642;23.308;2022-09-29T07:35:02;10.38;;;2.20;;
49392;SDS011;35268;42.642;23.308;2022-09-29T07:37:27;11.73;;;2.67;;
49392;SDS011;35268;42.642;23.308;2022-09-29T07:39:54;11.68;;;2.97;;
49392;SDS011;35268;42.642;23.308;2022-09-29T07:42:19;9.50;;;4.10;;
49392;SDS011;35268;42.642;23.308;2022-09-29T07:44:45;18.90;;;3.30;;
49392;SDS011;35268;42.642;23.308;2022-09-29T07:47:11;27.73;;;3.67;;
49392;SDS011;35268;42.642;23.308;2022-09-29T07:49:37;9.48;;;2.95;;
49392;SDS011;35268;42.642;23.308;2022-09-29T07:52:03;16.95;;;2.92;;
49392;SDS011;35268;42.642;23.308;2022-09-29T07:54:29;10.18;;;2.65;;
49392;SDS011;35268;42.642;23.308;2022-09-29T07:56:55;14.68;;;2.95;;
49392;SDS011;35268;42.642;23.308;2022-09-29T07:59:21;10.30;;;3.20;;
49392;SDS011;35268;42.642;23.308;2022-09-29T08:01:46;11.50;;;2.75;;
49392;SDS011;35268;42.642;23.308;2022-09-29T08:04:12;11.13;;;2.92;;
49392;SDS011;35268;42.642;23.308;2022-09-29T08:06:38;10.55;;;3.33;;
49392;SDS011;35268;42.642;23.308;2022-09-29T08:09:04;12.25;;;3.72;;
49392;SDS011;35268;42.642;23.308;2022-09-29T08:11:30;9.50;;;3.05;;
49392;SDS011;35268;42.642;23.308;2022-09-29T08:13:56;11.93;;;2.95;;
49392;SDS011;35268;42.642;23.308;2022-09-29T08:16:22;15.55;;;3.58;;
49392;SDS011;35268;42.642;23.308;2022-09-29T08:18:47;17.83;;;4.30;;
49392;SDS011;35268;42.642;23.308;2022-09-29T08:21:14;20.05;;;5.13;;
49392;SDS011;35268;42.642;23.308;2022-09-29T08:23:40;15.80;;;3.58;;
49392;SDS011;35268;42.642;23.308;2022-09-29T08:26:13;15.13;;;4.15;;
49392;SDS011;35268;42.642;23.308;2022-09-29T08:28:41;13.75;;;2.97;;
49392;SDS011;35268;42.642;23.308;2022-09-29T08:31:09;9.63;;;2.85;;
49392;SDS011;35268;42.642;23.308;2022-09-29T08:33:40;8.45;;;2.70;;
49392;SDS011;35268;42.642;23.308;2022-09-29T08:36:06;15.05;;;3.08;;
49392;SDS011;35268;42.642;23.308;2022-09-29T08:38:42;12.25;;;2.88;;
49392;SDS011;35268;42.642;23.308;2022-09-29T08:41:22;14.18;;;3.00;;
49392;SDS011;35268;42.642;23.308;2022-09-29T08:43:49;11.60;;;2.65;;
49392;SDS011;35268;42.642;23.308;2022-09-29T08:46:39;12.32;;;3.38;;
49392;SDS011;35268;42.642;23.308;2022-09-29T08:49:21;13.40;;;3.38;;
49392;SDS011;35268;42.642;23.308;2022-09-29T08:51:52;19.73;;;3.42;;
49392;SDS011;35268;42.642;23.308;2022-09-29T08:54:31;25.85;;;4.18;;
49392;SDS011;35268;42.642;23.308;2022-09-29T08:56:59;9.85;;;3.20;;
49392;SDS011;35268;42.642;23.308;2022-09-29T08:59:26;16.23;;;3.17;;
49392;SDS011;35268;42.642;23.308;2022-09-29T09:10:28;12.60;;;3.97;;
49392;SDS011;35268;42.642;23.308;2022-09-29T09:13:06;13.75;;;4.20;;
49392;SDS011;35268;42.642;23.308;2022-09-29T09:15:58;20.15;;;3.33;;
49392;SDS011;35268;42.642;23.308;2022-09-29T09:21:06;17.40;;;4.28;;
49392;SDS011;35268;42.642;23.308;2022-09-29T09:26:42;12.18;;;2.85;;
49392;SDS011;35268;42.642;23.308;2022-09-29T09:37:25;5.97;;;2.25;;
49392;SDS011;35268;42.642;23.308;2022-09-29T09:42:28;11.40;;;2.83;;
49392;SDS011;35268;42.642;23.308;2022-09-29T09:44:58;13.55;;;2.63;;
49392;SDS011;35268;42.642;23.308;2022-09-29T09:50:17;12.00;;;2.15;;
49392;SDS011;35268;42.642;23.308;2022-09-29T09:55:22;6.55;;;2.25;;
49392;SDS011;35268;42.642;23.308;2022-09-29T10:03:14;2.42;;;1.10;;
49392;SDS011;35268;42.642;23.308;2022-09-29T10:05:41;2.22;;;1.10;;
49392;SDS011;35268;42.642;23.308;2022-09-29T10:08:42;5.65;;;1.77;;
49392;SDS011;35268;42.642;23.308;2022-09-29T10:11:15;6.60;;;1.45;;
49392;SDS011;35268;42.642;23.308;2022-09-29T10:13:47;5.00;;;1.70;;
49392;SDS011;35268;42.642;23.308;2022-09-29T10:17:06;7.68;;;2.55;;
49392;SDS011;35268;42.642;23.308;2022-09-29T10:19:12;7.55;;;2.67;;
49392;SDS011;35268;42.642;23.308;2022-09-29T10:21:38;10.90;;;2.22;;
49392;SDS011;35268;42.642;23.308;2022-09-29T10:24:04;15.98;;;2.13;;
49392;SDS011;35268;42.642;23.308;2022-09-29T10:26:43;5.85;;;1.80;;
49392;SDS011;35268;42.642;23.308;2022-09-29T10:31:56;10.60;;;1.83;;
49392;SDS011;35268;42.642;23.308;2022-09-29T10:34:26;8.85;;;1.90;;
49392;SDS011;35268;42.642;23.308;2022-09-29T10:39:36;5.45;;;1.75;;
49392;SDS011;35268;42.642;23.308;2022-09-29T10:45:00;6.25;;;1.92;;
49392;SDS011;35268;42.642;23.308;2022-09-29T10:47:46;9.52;;;1.90;;
49392;SDS011;35268;42.642;23.308;2022-09-29T10:50:23;15.07;;;2.53;;
49392;SDS011;35268;42.642;23.308;2022-09-29T10:52:54;11.35;;;2.33;;
49392;SDS011;35268;42.642;23.308;2022-09-29T10:55:22;3.22;;;1.40;;
49392;SDS011;35268;42.642;23.308;2022-09-29T10:57:50;8.13;;;1.30;;
49392;SDS011;35268;42.642;23.308;2022-09-29T11:02:50;6.65;;;1.42;;
49392;SDS011;35268;42.642;23.308;2022-09-29T11:05:21;4.70;;;1.42;;
49392;SDS011;35268;42.642;23.308;2022-09-29T11:07:50;3.20;;;1.27;;
49392;SDS011;35268;42.642;23.308;2022-09-29T11:13:45;2.40;;;1.17;;
49392;SDS011;35268;42.642;23.308;2022-09-29T11:15:48;3.33;;;1.10;;
49392;SDS011;35268;42.642;23.308;2022-09-29T11:18:18;6.95;;;1.33;;
49392;SDS011;35268;42.642;23.308;2022-09-29T11:20:52;2.53;;;1.15;;
49392;SDS011;35268;42.642;23.308;2022-09-29T11:23:37;4.57;;;1.27;;
49392;SDS011;35268;42.642;23.308;2022-09-29T11:26:55;2.80;;;1.20;;
49392;SDS011;35268;42.642;23.308;2022-09-29T11:32:09;8.98;;;1.45;;
49392;SDS011;35268;42.642;23.308;2022-09-29T11:40:23;3.22;;;0.90;;
49392;SDS011;35268;42.642;23.308;2022-09-29T11:45:15;2.35;;;0.90;;
49392;SDS011;35268;42.642;23.308;2022-09-29T12:01:42;2.15;;;0.80;;
49392;SDS011;35268;42.642;23.308;2022-09-29T12:07:11;4.93;;;1.02;;
49392;SDS011;35268;42.642;23.308;2022-09-29T12:18:33;2.35;;;1.30;;
49392;SDS011;35268;42.642;23.308;2022-09-29T12:21:00;3.72;;;1.45;;
49392;SDS011;35268;42.642;23.308;2022-09-29T12:23:28;3.30;;;1.00;;
49392;SDS011;35268;42.642;23.308;2022-09-29T12:25:58;3.05;;;1.02;;
49392;SDS011;35268;42.642;23.308;2022-09-29T12:28:42;2.53;;;1.00;;
49392;SDS011;35268;42.642;23.308;2022-09-29T12:31:20;1.88;;;0.85;;
49392;SDS011;35268;42.642;23.308;2022-09-29T12:33:56;3.72;;;0.70;;
49392;SDS011;35268;42.642;23.308;2022-09-29T12:36:34;1.23;;;0.80;;
49392;SDS011;35268;42.642;23.308;2022-09-29T12:41:36;3.95;;;1.17;;
49392;SDS011;35268;42.642;23.308;2022-09-29T12:44:14;4.93;;;1.50;;
49392;SDS011;35268;42.642;23.308;2022-09-29T12:46:51;3.17;;;1.25;;
49392;SDS011;35268;42.642;23.308;2022-09-29T12:52:39;4.45;;;1.00;;
49392;SDS011;35268;42.642;23.308;2022-09-29T12:55:37;1.95;;;0.80;;
49392;SDS011;35268;42.642;23.308;2022-09-29T12:58:18;2.72;;;0.93;;
49392;SDS011;35268;42.642;23.308;2022-09-29T13:00:55;2.30;;;0.70;;
49392;SDS011;35268;42.642;23.308;2022-09-29T13:06:15;12.18;;;1.00;;
49392;SDS011;35268;42.642;23.308;2022-09-29T13:08:55;1.98;;;0.90;;
49392;SDS011;35268;42.642;23.308;2022-09-29T13:17:41;2.10;;;0.90;;
49392;SDS011;35268;42.642;23.308;2022-09-29T13:29:16;1.38;;;0.70;;
49392;SDS011;35268;42.642;23.308;2022-09-29T13:31:45;2.38;;;0.90;;
49392;SDS011;35268;42.642;23.308;2022-09-29T13:34:29;5.43;;;1.02;;
49392;SDS011;35268;42.642;23.308;2022-09-29T13:37:04;3.08;;;1.08;;
49392;SDS011;35268;42.642;23.308;2022-09-29T13:39:55;1.77;;;0.80;;
49392;SDS011;35268;42.642;23.308;2022-09-29T13:47:48;7.10;;;1.40;;
49392;SDS011;35268;42.642;23.308;2022-09-29T13:58:29;2.47;;;1.40;;
49392;SDS011;35268;42.642;23.308;2022-09-29T14:00:58;12.95;;;1.50;;
49392;SDS011;35268;42.642;23.308;2022-09-29T14:03:35;3.78;;;1.00;;
49392;SDS011;35268;42.642;23.308;2022-09-29T14:09:14;3.42;;;1.55;;
49392;SDS011;35268;42.642;23.308;2022-09-29T14:11:47;10.55;;;1.70;;
49392;SDS011;35268;42.642;23.308;2022-09-29T14:14:19;5.70;;;1.52;;
49392;SDS011;35268;42.642;23.308;2022-09-29T14:17:17;5.97;;;1.50;;
49392;SDS011;35268;42.642;23.308;2022-09-29T14:22:57;5.07;;;1.38;;
49392;SDS011;35268;42.642;23.308;2022-09-29T14:32:58;8.20;;;2.35;;
49392;SDS011;35268;42.642;23.308;2022-09-29T14:36:17;10.95;;;2.75;;
49392;SDS011;35268;42.642;23.308;2022-09-29T14:40:53;11.82;;;2.83;;
49392;SDS011;35268;42.642;23.308;2022-09-29T14:43:20;13.27;;;2.78;;
49392;SDS011;35268;42.642;23.308;2022-09-29T14:45:56;6.20;;;2.35;;
49392;SDS011;35268;42.642;23.308;2022-09-29T14:52:09;6.53;;;2.90;;
49392;SDS011;35268;42.642;23.308;2022-09-29T15:00:43;7.53;;;2.63;;
49392;SDS011;35268;42.642;23.308;2022-09-29T15:03:25;8.63;;;2.70;;
49392;SDS011;35268;42.642;23.308;2022-09-29T15:06:10;9.55;;;2.88;;
49392;SDS011;35268;42.642;23.308;2022-09-29T15:08:41;7.43;;;3.75;;
49392;SDS011;35268;42.642;23.308;2022-09-29T15:11:41;8.40;;;2.55;;
49392;SDS011;35268;42.642;23.308;2022-09-29T15:14:21;6.93;;;3.30;;
49392;SDS011;35268;42.642;23.308;2022-09-29T15:22:28;6.20;;;2.90;;
49392;SDS011;35268;42.642;23.308;2022-09-29T15:27:50;11.98;;;3.20;;
49392;SDS011;35268;42.642;23.308;2022-09-29T15:30:18;8.30;;;3.28;;
49392;SDS011;35268;42.642;23.308;2022-09-29T15:32:47;7.80;;;2.55;;
49392;SDS011;35268;42.642;23.308;2022-09-29T15:35:16;6.60;;;2.47;;
49392;SDS011;35268;42.642;23.308;2022-09-29T15:40:19;2.90;;;1.73;;
49392;SDS011;35268;42.642;23.308;2022-09-29T15:43:01;7.43;;;1.80;;
49392;SDS011;35268;42.642;23.308;2022-09-29T15:45:28;5.50;;;1.65;;
49392;SDS011;35268;42.642;23.308;2022-09-29T15:48:02;4.90;;;2.38;;
49392;SDS011;35268;42.642;23.308;2022-09-29T15:50:31;5.82;;;2.30;;
49392;SDS011;35268;42.642;23.308;2022-09-29T15:53:05;4.43;;;2.25;;
49392;SDS011;35268;42.642;23.308;2022-09-29T15:55:52;5.22;;;2.90;;
49392;SDS011;35268;42.642;23.308;2022-09-29T15:58:39;8.80;;;2.90;;
49392;SDS011;35268;42.642;23.308;2022-09-29T16:01:10;6.20;;;2.30;;
49392;SDS011;35268;42.642;23.308;2022-09-29T16:03:38;9.95;;;3.03;;
49392;SDS011;35268;42.642;23.308;2022-09-29T16:06:28;5.13;;;2.63;;
49392;SDS011;35268;42.642;23.308;2022-09-29T16:09:00;4.80;;;2.38;;
49392;SDS011;35268;42.642;23.308;2022-09-29T16:13:59;4.43;;;2.15;;
49392;SDS011;35268;42.642;23.308;2022-09-29T16:16:39;8.35;;;3.03;;
49392;SDS011;35268;42.642;23.308;2022-09-29T16:19:26;4.97;;;3.10;;
49392;SDS011;35268;42.642;23.308;2022-09-29T16:21:59;4.75;;;2.40;;
49392;SDS011;35268;42.642;23.308;2022-09-29T16:24:32;5.63;;;2.70;;
49392;SDS011;35268;42.642;23.308;2022-09-29T16:26:58;4.43;;;3.20;;
49392;SDS011;35268;42.642;23.308;2022-09-29T16:31:57;5.35;;;2.78;;
49392;SDS011;35268;42.642;23.308;2022-09-29T16:34:26;8.27;;;3.08;;
49392;SDS011;35268;42.642;23.308;2022-09-29T16:36:54;5.70;;;2.65;;
49392;SDS011;35268;42.642;23.308;2022-09-29T16:39:29;8.32;;;3.10;;
49392;SDS011;35268;42.642;23.308;2022-09-29T16:41:58;5.78;;;2.95;;
49392;SDS011;35268;42.642;23.308;2022-09-29T16:44:34;9.98;;;3.35;;
49392;SDS011;35268;42.642;23.308;2022-09-29T16:47:14;7.75;;;2.20;;
49392;SDS011;35268;42.642;23.308;2022-09-29T16:49:44;4.97;;;2.35;;
49392;SDS011;35268;42.642;23.308;2022-09-29T16:54:47;8.10;;;2.78;;
49392;SDS011;35268;42.642;23.308;2022-09-29T16:57:21;8.98;;;2.55;;
49392;SDS011;35268;42.642;23.308;2022-09-29T16:59:56;8.75;;;2.63;;
49392;SDS011;35268;42.642;23.308;2022-09-29T17:02:24;7.63;;;2.90;;
49392;SDS011;35268;42.642;23.308;2022-09-29T17:04:50;4.47;;;2.45;;
49392;SDS011;35268;42.642;23.308;2022-09-29T17:07:19;13.20;;;4.00;;
49392;SDS011;35268;42.642;23.308;2022-09-29T17:09:47;6.85;;;3.70;;
49392;SDS011;35268;42.642;23.308;2022-09-29T17:12:15;11.90;;;3.90;;
49392;SDS011;35268;42.642;23.308;2022-09-29T17:14:42;10.13;;;4.20;;
49392;SDS011;35268;42.642;23.308;2022-09-29T17:17:19;11.18;;;4.22;;
49392;SDS011;35268;42.642;23.308;2022-09-29T17:19:49;20.67;;;7.25;;
49392;SDS011;35268;42.642;23.308;2022-09-29T17:25:03;14.73;;;8.80;;
49392;SDS011;35268;42.642;23.308;2022-09-29T17:27:29;9.27;;;5.32;;
49392;SDS011;35268;42.642;23.308;2022-09-29T17:30:20;12.35;;;5.75;;
49392;SDS011;35268;42.642;23.308;2022-09-29T17:32:48;13.18;;;6.50;;
49392;SDS011;35268;42.642;23.308;2022-09-29T17:35:15;10.15;;;5.47;;
49392;SDS011;35268;42.642;23.308;2022-09-29T17:37:43;8.77;;;4.38;;
49392;SDS011;35268;42.642;23.308;2022-09-29T17:40:29;11.52;;;6.00;;
49392;SDS011;35268;42.642;23.308;2022-09-29T17:42:59;14.07;;;4.40;;
49392;SDS011;35268;42.642;23.308;2022-09-29T17:45:26;13.40;;;4.78;;
49392;SDS011;35268;42.642;23.308;2022-09-29T17:47:54;11.68;;;4.50;;
49392;SDS011;35268;42.642;23.308;2022-09-29T17:53:00;7.78;;;4.55;;
49392;SDS011;35268;42.642;23.308;2022-09-29T17:55:28;8.68;;;4.32;;
49392;SDS011;35268;42.642;23.308;2022-09-29T17:57:54;10.32;;;4.55;;
49392;SDS011;35268;42.642;23.308;2022-09-29T18:00:22;9.82;;;4.85;;
49392;SDS011;35268;42.642;23.308;2022-09-29T18:02:51;6.55;;;3.97;;
49392;SDS011;35268;42.642;23.308;2022-09-29T18:05:21;6.95;;;3.45;;
49392;SDS011;35268;42.642;23.308;2022-09-29T18:07:48;9.23;;;3.40;;
49392;SDS011;35268;42.642;23.308;2022-09-29T18:10:25;6.53;;;3.53;;
49392;SDS011;35268;42.642;23.308;2022-09-29T18:12:53;10.82;;;3.30;;
49392;SDS011;35268;42.642;23.308;2022-09-29T18:15:19;8.13;;;3.70;;
49392;SDS011;35268;42.642;23.308;2022-09-29T18:17:45;8.55;;;4.18;;
49392;SDS011;35268;42.642;23.308;2022-09-29T18:20:14;7.80;;;3.70;;